createdAt,value
2022-07-26T00:01:15.970Z,16.61
2022-07-26T00:03:42.389Z,16.70
2022-07-26T00:06:08.992Z,16.63
2022-07-26T00:08:35.361Z,16.52
2022-07-26T00:11:07.115Z,16.53
2022-07-26T00:13:34.609Z,16.51
2022-07-26T00:16:01.880Z,16.57
2022-07-26T00:18:28.305Z,16.49
2022-07-26T00:20:55.489Z,16.48
2022-07-26T00:23:22.194Z,16.47
2022-07-26T00:25:48.624Z,16.50
2022-07-26T00:28:15.044Z,16.40
2022-07-26T00:30:41.484Z,16.44
2022-07-26T00:33:08.652Z,16.47
2022-07-26T00:35:35.085Z,16.49
2022-07-26T00:38:01.561Z,16.59
2022-07-26T00:40:27.924Z,16.60
2022-07-26T00:42:54.373Z,16.57
2022-07-26T00:45:21.225Z,16.57
2022-07-26T00:47:47.648Z,16.59
2022-07-26T00:50:16.453Z,16.57
2022-07-26T00:52:44.333Z,16.59
2022-07-26T00:55:11.181Z,16.59
2022-07-26T00:57:38.895Z,16.61
2022-07-26T01:00:09.671Z,16.58
2022-07-26T01:02:36.167Z,16.65
2022-07-26T01:05:03.348Z,16.67
2022-07-26T01:07:29.816Z,16.60
2022-07-26T01:09:56.881Z,16.51
2022-07-26T01:12:23.583Z,16.50
2022-07-26T01:14:49.980Z,16.52
2022-07-26T01:17:16.529Z,16.50
2022-07-26T01:19:42.969Z,16.45
2022-07-26T01:22:14.200Z,16.40
2022-07-26T01:24:41.572Z,16.40
2022-07-26T01:27:08.311Z,16.36
2022-07-26T01:29:36.370Z,16.35
2022-07-26T01:32:04.782Z,16.32
2022-07-26T01:34:31.281Z,16.31
2022-07-26T01:36:57.847Z,16.32
2022-07-26T01:39:24.235Z,16.23
2022-07-26T01:41:50.686Z,16.22
2022-07-26T01:44:17.072Z,16.14
2022-07-26T01:46:43.385Z,16.04
2022-07-26T01:49:10.008Z,16.04
2022-07-26T01:51:36.585Z,16.03
2022-07-26T01:54:03.427Z,15.96
2022-07-26T01:56:29.843Z,15.87
2022-07-26T01:58:56.196Z,15.90
2022-07-26T02:01:38.929Z,15.87
2022-07-26T02:04:29.527Z,15.85
2022-07-26T02:06:55.906Z,15.76
2022-07-26T02:09:22.276Z,15.71
2022-07-26T02:11:49.098Z,15.67
2022-07-26T02:14:25.601Z,15.78
2022-07-26T02:16:59.667Z,15.75
2022-07-26T02:19:27.805Z,15.72
2022-07-26T02:21:54.632Z,15.71
2022-07-26T02:24:21.112Z,15.72
2022-07-26T02:26:47.578Z,15.68
2022-07-26T02:29:14.039Z,15.68
2022-07-26T02:31:40.501Z,15.68
2022-07-26T02:34:07.248Z,15.72
2022-07-26T02:36:34.068Z,15.78
2022-07-26T02:39:00.456Z,15.74
2022-07-26T02:41:26.899Z,15.69
2022-07-26T02:43:53.269Z,15.67
2022-07-26T02:46:19.784Z,15.61
2022-07-26T02:48:46.300Z,15.66
2022-07-26T02:51:12.733Z,15.62
2022-07-26T02:53:39.107Z,15.50
2022-07-26T02:56:05.779Z,15.56
2022-07-26T02:58:32.142Z,15.58
2022-07-26T03:00:58.602Z,15.58
2022-07-26T03:03:25.200Z,15.64
2022-07-26T03:05:51.572Z,15.64
2022-07-26T03:08:17.965Z,15.63
2022-07-26T03:10:44.547Z,15.72
2022-07-26T03:13:11.456Z,15.71
2022-07-26T03:15:38.164Z,15.72
2022-07-26T03:18:04.612Z,15.77
2022-07-26T03:20:30.968Z,15.83
2022-07-26T03:23:12.407Z,15.83
2022-07-26T03:25:38.851Z,15.77
2022-07-26T03:28:05.458Z,15.84
2022-07-26T03:30:32.019Z,15.91
2022-07-26T03:32:58.490Z,15.90
2022-07-26T03:35:25.411Z,15.98
2022-07-26T03:37:52.663Z,15.92
2022-07-26T03:40:19.711Z,15.94
2022-07-26T03:42:47.539Z,16.00
2022-07-26T03:45:15.083Z,15.98
2022-07-26T03:47:42.133Z,16.01
2022-07-26T03:50:09.394Z,15.97
2022-07-26T03:52:35.798Z,16.00
2022-07-26T03:55:22.787Z,16.00
2022-07-26T03:57:49.183Z,16.04
2022-07-26T04:00:15.694Z,16.06
2022-07-26T04:02:42.100Z,16.08
2022-07-26T04:05:08.979Z,16.12
2022-07-26T04:07:52.640Z,16.16
2022-07-26T04:10:20.135Z,16.25
2022-07-26T04:12:46.573Z,16.18
2022-07-26T04:15:13.060Z,16.22
2022-07-26T04:17:40.990Z,16.22
2022-07-26T04:20:09.348Z,16.22
2022-07-26T04:22:36.833Z,16.28
2022-07-26T04:25:05.355Z,16.29
2022-07-26T04:27:32.343Z,16.22
2022-07-26T04:29:59.447Z,16.22
2022-07-26T04:32:25.848Z,16.23
2022-07-26T04:34:52.361Z,16.19
2022-07-26T04:37:18.768Z,16.22
2022-07-26T04:39:45.541Z,16.25
2022-07-26T04:42:12.085Z,16.12
2022-07-26T04:44:38.645Z,16.11
2022-07-26T04:47:05.114Z,16.09
2022-07-26T04:49:31.506Z,16.07
2022-07-26T04:51:59.541Z,15.97
2022-07-26T04:54:26.693Z,15.95
2022-07-26T04:56:53.069Z,15.96
2022-07-26T04:59:21.802Z,15.88
2022-07-26T05:01:48.477Z,15.85
2022-07-26T05:04:15.322Z,15.63
2022-07-26T05:06:41.659Z,15.49
2022-07-26T05:09:08.855Z,15.57
2022-07-26T05:11:35.196Z,15.50
2022-07-26T05:14:01.535Z,15.55
2022-07-26T05:16:28.039Z,15.60
2022-07-26T05:18:54.424Z,15.69
2022-07-26T05:21:20.820Z,15.66
2022-07-26T05:23:47.308Z,15.61
2022-07-26T05:26:14.261Z,15.64
2022-07-26T05:28:41.310Z,15.68
2022-07-26T05:31:07.868Z,15.77
2022-07-26T05:33:34.309Z,15.82
2022-07-26T05:36:00.707Z,15.87
2022-07-26T05:38:27.617Z,15.86
2022-07-26T05:40:53.983Z,15.84
2022-07-26T05:43:20.370Z,15.88
2022-07-26T05:45:46.879Z,15.92
2022-07-26T05:48:13.349Z,16.00
2022-07-26T05:50:39.688Z,16.01
2022-07-26T05:53:06.108Z,16.07
2022-07-26T05:55:33.828Z,16.02
2022-07-26T05:58:00.194Z,16.07
2022-07-26T06:00:26.632Z,16.16
2022-07-26T06:02:53.103Z,16.16
2022-07-26T06:05:19.557Z,16.24
2022-07-26T06:07:45.937Z,16.30
2022-07-26T06:10:12.461Z,16.35
2022-07-26T06:12:38.869Z,16.33
2022-07-26T06:15:14.896Z,16.38
2022-07-26T06:17:42.641Z,16.33
2022-07-26T06:20:09.695Z,16.28
2022-07-26T06:22:36.025Z,16.26
2022-07-26T06:25:02.401Z,16.21
2022-07-26T06:27:28.930Z,16.22
2022-07-26T06:29:55.279Z,16.31
2022-07-26T06:32:21.699Z,16.38
2022-07-26T06:34:48.150Z,16.35
2022-07-26T06:37:14.623Z,16.46
2022-07-26T06:39:41.044Z,16.47
2022-07-26T06:42:07.412Z,16.56
2022-07-26T06:44:33.782Z,16.59
2022-07-26T06:47:00.174Z,16.61
2022-07-26T06:49:26.711Z,16.60
2022-07-26T06:51:53.127Z,16.69
2022-07-26T06:54:19.473Z,16.74
2022-07-26T06:56:45.795Z,16.55
2022-07-26T06:59:12.174Z,16.55
2022-07-26T07:01:58.209Z,16.40
2022-07-26T07:04:25.123Z,16.38
2022-07-26T07:06:51.624Z,16.40
2022-07-26T07:09:19.119Z,16.37
2022-07-26T07:11:45.562Z,16.16
2022-07-26T07:14:15.133Z,16.01
2022-07-26T07:16:41.662Z,15.92
2022-07-26T07:19:08.071Z,15.82
2022-07-26T07:21:34.464Z,15.82
2022-07-26T07:24:00.945Z,15.71
2022-07-26T07:26:28.468Z,15.77
2022-07-26T07:28:55.626Z,15.62
2022-07-26T07:31:30.226Z,15.86
2022-07-26T07:33:57.056Z,15.92
2022-07-26T07:36:23.435Z,15.87
2022-07-26T07:38:49.883Z,16.05
2022-07-26T07:41:16.395Z,16.05
2022-07-26T07:43:42.773Z,16.00
2022-07-26T07:46:09.115Z,16.56
2022-07-26T07:48:37.367Z,16.61
2022-07-26T07:51:03.900Z,16.58
2022-07-26T07:53:30.496Z,16.50
2022-07-26T07:55:57.376Z,16.25
2022-07-26T07:58:23.855Z,15.90
2022-07-26T08:00:50.425Z,15.69
2022-07-26T08:03:18.529Z,15.54
2022-07-26T08:05:46.369Z,15.30
2022-07-26T08:08:16.814Z,15.44
2022-07-26T08:10:49.151Z,15.39
2022-07-26T08:13:21.439Z,15.52
2022-07-26T08:15:49.390Z,15.82
2022-07-26T08:18:15.944Z,16.23
2022-07-26T08:20:43.488Z,16.51
2022-07-26T08:23:10.031Z,16.57
2022-07-26T08:25:39.938Z,16.73
2022-07-26T08:28:30.653Z,17.04
2022-07-26T08:30:58.893Z,17.11
2022-07-26T08:33:25.461Z,17.03
2022-07-26T08:35:54.853Z,17.28
2022-07-26T08:38:24.861Z,17.00
2022-07-26T08:40:51.336Z,16.79
2022-07-26T08:43:17.714Z,16.42
2022-07-26T08:45:45.598Z,16.24
2022-07-26T08:48:17.859Z,15.90
2022-07-26T08:50:45.194Z,15.80
2022-07-26T08:53:13.123Z,15.99
2022-07-26T08:56:05.355Z,15.98
2022-07-26T08:58:26.358Z,16.15
2022-07-26T09:01:07.874Z,16.21
2022-07-26T09:03:37.693Z,16.33
2022-07-26T09:06:26.452Z,16.73
2022-07-26T09:09:10.555Z,16.88
2022-07-26T09:11:37.145Z,17.26
2022-07-26T09:14:05.793Z,17.37
2022-07-26T09:16:37.302Z,17.49
2022-07-26T09:19:22.490Z,17.44
2022-07-26T09:21:49.496Z,17.53
2022-07-26T09:24:38.259Z,17.44
2022-07-26T09:27:07.107Z,17.26
2022-07-26T09:29:48.533Z,17.24
2022-07-26T09:32:17.831Z,17.26
2022-07-26T09:34:52.766Z,17.36
2022-07-26T09:37:36.513Z,17.63
2022-07-26T09:40:06.512Z,17.86
2022-07-26T09:42:33.106Z,17.94
2022-07-26T09:44:59.537Z,17.85
2022-07-26T09:47:39.109Z,17.29
2022-07-26T09:50:26.347Z,17.18
2022-07-26T09:52:58.868Z,16.64
2022-07-26T09:55:26.191Z,16.63
2022-07-26T09:57:52.944Z,16.33
2022-07-26T10:00:19.816Z,16.33
2022-07-26T10:02:46.286Z,16.08
2022-07-26T10:05:12.746Z,16.29
2022-07-26T10:07:39.350Z,16.69
2022-07-26T10:10:12.790Z,17.07
2022-07-26T10:12:43.969Z,17.29
2022-07-26T10:15:49.550Z,16.85
2022-07-26T10:18:37.985Z,17.18
2022-07-26T10:21:21.032Z,17.11
2022-07-26T10:23:58.685Z,17.13
2022-07-26T10:26:30.996Z,17.37
2022-07-26T10:29:15.880Z,17.24
2022-07-26T10:32:02.463Z,17.24
2022-07-26T10:34:36.322Z,17.15
2022-07-26T10:37:09.036Z,17.04
2022-07-26T10:39:36.751Z,16.82
2022-07-26T10:42:10.939Z,16.80
2022-07-26T10:44:42.379Z,16.70
2022-07-26T10:47:08.766Z,16.85
2022-07-26T10:49:38.123Z,16.87
2022-07-26T10:52:24.690Z,17.37
2022-07-26T10:54:57.172Z,17.75
2022-07-26T10:57:29.391Z,18.29
2022-07-26T11:00:00.228Z,18.16
2022-07-26T11:02:35.896Z,18.11
2022-07-26T11:05:14.770Z,17.66
2022-07-26T11:07:55.833Z,17.65
2022-07-26T11:10:30.731Z,18.16
2022-07-26T11:13:04.711Z,18.35
2022-07-26T11:15:31.411Z,18.46
2022-07-26T11:18:08.267Z,18.37
2022-07-26T11:20:34.633Z,18.13
2022-07-26T11:23:01.226Z,18.16
2022-07-26T11:25:28.843Z,18.29
2022-07-26T11:28:07.185Z,18.83
2022-07-26T11:30:34.683Z,19.01
2022-07-26T11:33:01.036Z,18.58
2022-07-26T11:35:29.873Z,18.52
2022-07-26T11:38:07.896Z,18.58
2022-07-26T11:40:46.395Z,18.74
2022-07-26T11:43:13.276Z,19.26
2022-07-26T11:45:40.370Z,19.17
2022-07-26T11:48:07.081Z,19.18
2022-07-26T11:50:33.596Z,19.61
2022-07-26T11:53:00.087Z,19.80
2022-07-26T11:55:28.859Z,19.02
2022-07-26T11:57:55.640Z,18.75
2022-07-26T12:00:23.637Z,18.78
2022-07-26T12:02:55.495Z,18.49
2022-07-26T12:05:23.578Z,18.78
2022-07-26T12:07:55.842Z,18.92
2022-07-26T12:10:22.597Z,18.91
2022-07-26T12:12:49.048Z,18.93
2022-07-26T12:15:15.726Z,18.86
2022-07-26T12:17:58.823Z,18.48
2022-07-26T12:20:27.845Z,18.39
2022-07-26T12:22:56.143Z,18.45
2022-07-26T12:25:29.341Z,18.29
2022-07-26T12:27:56.446Z,18.96
2022-07-26T12:30:23.652Z,19.30
2022-07-26T12:32:55.105Z,19.19
2022-07-26T12:35:35.192Z,19.21
2022-07-26T12:38:02.375Z,19.49
2022-07-26T12:40:30.945Z,19.61
2022-07-26T12:43:02.268Z,19.47
2022-07-26T12:45:31.661Z,19.46
2022-07-26T12:48:00.370Z,19.90
2022-07-26T12:50:28.560Z,19.59
2022-07-26T12:53:08.809Z,19.58
2022-07-26T12:55:35.995Z,19.39
2022-07-26T12:58:02.577Z,19.42
2022-07-26T13:00:29.902Z,19.61
2022-07-26T13:02:57.211Z,19.95
2022-07-26T13:05:23.866Z,19.82
2022-07-26T13:07:52.300Z,19.21
2022-07-26T13:10:35.704Z,19.61
2022-07-26T13:13:03.869Z,19.89
2022-07-26T13:15:36.475Z,19.87
2022-07-26T13:18:05.820Z,19.38
2022-07-26T13:20:32.560Z,19.72
2022-07-26T13:22:59.006Z,19.67
2022-07-26T13:25:26.079Z,19.71
2022-07-26T13:27:58.678Z,20.05
2022-07-26T13:30:25.137Z,20.10
2022-07-26T13:32:51.788Z,19.61
2022-07-26T13:35:18.173Z,19.37
2022-07-26T13:37:44.492Z,19.56
2022-07-26T13:40:11.383Z,19.57
2022-07-26T13:42:38.105Z,19.75
2022-07-26T13:45:06.481Z,20.03
2022-07-26T13:47:32.925Z,20.15
2022-07-26T13:49:59.378Z,20.00
2022-07-26T13:52:25.801Z,19.49
2022-07-26T13:54:52.165Z,19.49
2022-07-26T13:57:18.490Z,18.66
2022-07-26T13:59:44.841Z,18.71
2022-07-26T14:02:11.323Z,18.69
2022-07-26T14:04:37.843Z,18.53
2022-07-26T14:07:04.230Z,18.54
2022-07-26T14:09:30.593Z,18.65
2022-07-26T14:11:57.046Z,19.19
2022-07-26T14:14:23.508Z,19.53
2022-07-26T14:16:50.069Z,19.24
2022-07-26T14:19:17.242Z,19.41
2022-07-26T14:21:47.014Z,18.99
2022-07-26T14:24:25.466Z,19.12
2022-07-26T14:26:55.447Z,18.89
2022-07-26T14:29:25.166Z,18.58
2022-07-26T14:31:51.589Z,18.65
2022-07-26T14:34:18.040Z,18.68
2022-07-26T14:36:44.581Z,18.81
2022-07-26T14:39:10.973Z,18.86
2022-07-26T14:41:37.440Z,18.93
2022-07-26T14:44:04.186Z,19.07
2022-07-26T14:46:30.662Z,19.08
2022-07-26T14:48:57.162Z,19.07
2022-07-26T14:51:23.605Z,19.18
2022-07-26T14:53:50.012Z,18.87
2022-07-26T14:56:16.380Z,18.75
2022-07-26T14:58:42.770Z,18.58
2022-07-26T15:01:09.307Z,18.67
2022-07-26T15:03:35.779Z,18.63
2022-07-26T15:06:02.176Z,18.95
2022-07-26T15:08:28.543Z,19.09
2022-07-26T15:10:55.090Z,18.97
2022-07-26T15:13:21.621Z,19.28
2022-07-26T15:15:47.979Z,19.16
2022-07-26T15:18:14.404Z,19.34
2022-07-26T15:20:41.555Z,19.22
2022-07-26T15:23:09.481Z,19.18
2022-07-26T15:25:38.182Z,19.14
2022-07-26T15:28:05.119Z,19.16
2022-07-26T15:30:32.255Z,19.02
2022-07-26T15:32:59.097Z,18.82
2022-07-26T15:35:25.659Z,18.61
2022-07-26T15:37:52.141Z,18.39
2022-07-26T15:40:20.601Z,18.22
2022-07-26T15:42:49.915Z,17.88
2022-07-26T15:45:16.513Z,17.79
2022-07-26T15:47:54.962Z,17.93
2022-07-26T15:50:22.624Z,18.00
2022-07-26T15:52:49.119Z,17.82
2022-07-26T15:55:17.621Z,17.91
2022-07-26T15:57:45.657Z,17.79
2022-07-26T16:00:13.219Z,17.83
2022-07-26T16:02:40.887Z,17.76
2022-07-26T16:05:09.277Z,17.81
2022-07-26T16:07:35.954Z,18.03
2022-07-26T16:10:02.464Z,18.10
2022-07-26T16:12:29.510Z,17.81
2022-07-26T16:14:56.302Z,17.80
2022-07-26T16:17:22.736Z,17.62
2022-07-26T16:19:49.103Z,17.60
2022-07-26T16:22:16.490Z,17.45
2022-07-26T16:24:42.882Z,17.31
2022-07-26T16:27:09.259Z,17.15
2022-07-26T16:29:35.705Z,17.37
2022-07-26T16:32:02.200Z,17.38
2022-07-26T16:34:29.969Z,17.33
2022-07-26T16:36:56.350Z,17.07
2022-07-26T16:39:22.714Z,17.06
2022-07-26T16:41:49.150Z,16.95
2022-07-26T16:44:15.598Z,17.03
2022-07-26T16:46:42.034Z,17.11
2022-07-26T16:49:10.938Z,16.87
2022-07-26T16:51:37.748Z,16.69
2022-07-26T16:54:04.324Z,16.64
2022-07-26T16:56:30.688Z,16.69
2022-07-26T16:58:57.073Z,16.64
2022-07-26T17:01:23.505Z,16.68
2022-07-26T17:03:49.954Z,16.37
2022-07-26T17:06:16.337Z,16.41
2022-07-26T17:08:43.185Z,16.43
2022-07-26T17:11:09.947Z,16.50
2022-07-26T17:13:36.314Z,16.54
2022-07-26T17:16:02.998Z,16.42
2022-07-26T17:18:29.576Z,16.39
2022-07-26T17:20:55.941Z,16.76
2022-07-26T17:23:22.376Z,16.99
2022-07-26T17:25:48.803Z,17.01
2022-07-26T17:28:15.149Z,16.90
2022-07-26T17:30:41.516Z,16.73
2022-07-26T17:33:07.929Z,16.50
2022-07-26T17:35:34.408Z,16.47
2022-07-26T17:38:00.769Z,16.48
2022-07-26T17:40:29.389Z,16.52
2022-07-26T17:42:56.243Z,16.41
2022-07-26T17:45:22.760Z,16.79
2022-07-26T17:47:49.102Z,17.55
2022-07-26T17:53:02.035Z,17.98
2022-07-26T17:55:28.414Z,17.43
2022-07-26T17:57:54.838Z,17.52
2022-07-26T18:00:22.770Z,17.56
2022-07-26T18:02:49.459Z,17.68
2022-07-26T18:05:16.611Z,17.68
2022-07-26T18:07:43.205Z,16.80
2022-07-26T18:10:11.037Z,16.88
2022-07-26T18:12:37.874Z,16.54
2022-07-26T18:15:06.276Z,16.38
2022-07-26T18:17:32.779Z,16.14
2022-07-26T18:19:59.129Z,15.87
2022-07-26T18:22:27.123Z,15.81
2022-07-26T18:24:53.783Z,15.75
2022-07-26T18:27:20.280Z,15.77
2022-07-26T18:29:46.635Z,15.71
2022-07-26T18:32:13.243Z,15.75
2022-07-26T18:34:39.620Z,15.66
2022-07-26T18:37:18.575Z,15.68
2022-07-26T18:39:45.130Z,15.73
2022-07-26T18:42:11.599Z,15.83
2022-07-26T18:44:38.310Z,15.74
2022-07-26T18:47:06.216Z,15.65
2022-07-26T18:49:34.052Z,15.48
2022-07-26T18:52:06.156Z,15.48
2022-07-26T18:54:35.831Z,15.55
2022-07-26T18:57:02.239Z,15.58
2022-07-26T18:59:30.020Z,15.63
2022-07-26T19:01:58.647Z,15.61
2022-07-26T19:04:25.813Z,15.43
2022-07-26T19:06:52.268Z,15.28
2022-07-26T19:09:18.664Z,15.36
2022-07-26T19:11:47.897Z,15.38
2022-07-26T19:14:14.308Z,15.28
2022-07-26T19:16:40.830Z,15.31
2022-07-26T19:19:07.341Z,15.14
2022-07-26T19:21:33.764Z,14.92
2022-07-26T19:24:00.190Z,14.71
2022-07-26T19:26:27.368Z,14.74
2022-07-26T19:28:53.937Z,14.76
2022-07-26T19:31:21.261Z,14.72
2022-07-26T19:33:47.683Z,14.60
2022-07-26T19:36:18.045Z,14.56
2022-07-26T19:38:52.759Z,14.59
2022-07-26T19:41:21.948Z,14.62
2022-07-26T19:43:48.333Z,14.52
2022-07-26T19:46:14.916Z,14.41
2022-07-26T19:48:41.408Z,14.39
2022-07-26T19:51:07.884Z,14.35
2022-07-26T19:53:34.250Z,14.38
2022-07-26T19:56:00.757Z,14.43
2022-07-26T19:58:29.083Z,14.38
2022-07-26T20:00:55.698Z,14.37
2022-07-26T20:03:22.171Z,14.43
2022-07-26T20:05:48.556Z,14.50
2022-07-26T20:08:15.020Z,14.56
2022-07-26T20:10:41.402Z,14.62
2022-07-26T20:13:07.879Z,14.62
2022-07-26T20:15:34.270Z,14.43
2022-07-26T20:18:00.631Z,14.38
2022-07-26T20:20:26.958Z,14.39
2022-07-26T20:22:53.315Z,14.33
2022-07-26T20:25:21.910Z,14.25
2022-07-26T20:27:51.204Z,14.12
2022-07-26T20:30:18.160Z,14.16
2022-07-26T20:32:44.628Z,14.16
2022-07-26T20:35:11.258Z,14.13
2022-07-26T20:37:37.694Z,14.18
2022-07-26T20:40:05.151Z,14.10
2022-07-26T20:42:34.183Z,14.08
2022-07-26T20:45:01.097Z,14.03
2022-07-26T20:47:27.814Z,13.95
2022-07-26T20:49:55.663Z,13.97
2022-07-26T20:52:25.732Z,13.96
2022-07-26T20:54:52.199Z,13.91
2022-07-26T20:57:18.682Z,13.99
2022-07-26T20:59:45.064Z,13.88
2022-07-26T21:02:11.521Z,13.93
2022-07-26T21:04:37.987Z,13.93
2022-07-26T21:07:04.372Z,13.84
2022-07-26T21:09:30.939Z,13.86
2022-07-26T21:11:57.544Z,13.86
2022-07-26T21:14:23.984Z,13.92
2022-07-26T21:16:50.429Z,13.93
2022-07-26T21:19:16.934Z,13.73
2022-07-26T21:21:43.419Z,13.60
2022-07-26T21:24:09.892Z,13.60
2022-07-26T21:26:36.625Z,13.63
2022-07-26T21:29:03.393Z,13.55
2022-07-26T21:31:29.985Z,13.49
2022-07-26T21:33:56.477Z,13.46
2022-07-26T21:36:23.249Z,13.48
2022-07-26T21:38:49.715Z,13.51
2022-07-26T21:41:16.092Z,13.54
2022-07-26T21:43:42.483Z,13.55
2022-07-26T21:46:12.732Z,13.57
2022-07-26T21:48:39.781Z,13.47
2022-07-26T21:51:06.224Z,13.41
2022-07-26T21:53:32.599Z,13.34
2022-07-26T21:55:58.981Z,13.33
2022-07-26T21:58:27.862Z,13.30
2022-07-26T22:01:03.137Z,13.36
2022-07-26T22:03:35.168Z,13.40
2022-07-26T22:06:01.584Z,13.49
2022-07-26T22:08:27.998Z,13.57
2022-07-26T22:10:54.429Z,13.54
2022-07-26T22:13:20.969Z,13.51
2022-07-26T22:15:47.585Z,13.53
2022-07-26T22:18:14.361Z,13.43
2022-07-26T22:20:42.042Z,13.48
2022-07-26T22:23:11.185Z,13.54
2022-07-26T22:25:38.596Z,13.43
2022-07-26T22:28:07.773Z,13.38
2022-07-26T22:30:34.360Z,13.43
2022-07-26T22:33:02.583Z,13.44
2022-07-26T22:35:34.881Z,13.40
2022-07-26T22:38:10.633Z,13.43
2022-07-26T22:40:39.237Z,13.43
2022-07-26T22:43:06.335Z,13.44
2022-07-26T22:45:33.580Z,13.39
2022-07-26T22:48:01.714Z,13.37
2022-07-26T22:50:28.195Z,13.37
2022-07-26T22:52:54.934Z,13.39
2022-07-26T22:55:22.094Z,13.35
2022-07-26T22:57:48.657Z,13.28
2022-07-26T23:00:17.915Z,13.20
2022-07-26T23:02:44.672Z,13.17
2022-07-26T23:05:12.003Z,13.21
2022-07-26T23:07:38.826Z,13.29
2022-07-26T23:10:08.555Z,13.26
2022-07-26T23:12:35.642Z,13.21
2022-07-26T23:15:02.177Z,13.06
2022-07-26T23:17:28.523Z,13.07
2022-07-26T23:19:54.892Z,13.03
2022-07-26T23:22:21.387Z,13.07
2022-07-26T23:24:47.743Z,13.02
2022-07-26T23:27:18.139Z,12.94
2022-07-26T23:29:47.849Z,12.94
2022-07-26T23:32:15.548Z,12.91
2022-07-26T23:34:41.919Z,12.94
2022-07-26T23:37:08.504Z,12.90
2022-07-26T23:39:34.970Z,12.86
2022-07-26T23:42:02.774Z,12.84
2022-07-26T23:44:30.576Z,12.83
2022-07-26T23:46:58.241Z,12.82
2022-07-26T23:49:25.164Z,12.86
2022-07-26T23:51:51.682Z,12.89
2022-07-26T23:54:18.076Z,12.86
2022-07-26T23:56:45.504Z,12.80
2022-07-26T23:59:12.816Z,12.75
